createdAt,value
2019-01-06T02:58:22.311Z,91.30
2019-01-06T03:01:13.801Z,91.90
2019-01-06T06:09:54.964Z,91.90
2019-01-06T06:15:48.073Z,92.00
2019-01-06T06:18:39.387Z,91.70
2019-01-06T06:23:31.365Z,91.80
2019-01-06T06:26:16.154Z,90.60
2019-01-06T06:29:07.086Z,92.90
2019-01-06T06:32:01.966Z,94.00
2019-01-06T06:36:45.302Z,94.30
2019-01-06T06:39:34.540Z,95.10
2019-01-06T06:42:44.533Z,94.90
2019-01-06T06:47:24.335Z,95.20
2019-01-06T06:50:04.835Z,95.20
2019-01-06T06:52:48.323Z,94.80
2019-01-06T06:55:33.811Z,95.10
2019-01-06T06:58:19.848Z,95.90
2019-01-06T07:01:08.823Z,95.90
2019-01-06T07:03:49.124Z,95.10
2019-01-06T07:07:00.294Z,95.30
2019-01-06T07:09:40.244Z,94.00
2019-01-06T07:12:20.999Z,94.60
2019-01-06T07:17:07.103Z,94.00
2019-01-06T07:21:49.210Z,94.40
2019-01-06T07:24:38.087Z,95.40
2019-01-06T07:27:16.958Z,95.00
2019-01-06T07:29:57.079Z,95.70
2019-01-06T07:32:45.518Z,94.50
2019-01-06T07:36:00.682Z,95.20
2019-01-06T07:38:43.086Z,95.20
2019-01-06T07:42:01.675Z,95.60
2019-01-06T07:44:49.777Z,95.00
2019-01-06T07:47:56.622Z,95.30
2019-01-06T07:50:35.699Z,95.00
2019-01-06T07:53:16.591Z,96.10
2019-01-06T07:56:21.018Z,95.80
2019-01-06T08:01:09.203Z,96.20
2019-01-06T08:03:55.542Z,96.30
2019-01-06T08:12:44.184Z,95.70
2019-01-06T08:16:01.209Z,94.50
2019-01-06T09:11:09.538Z,93.20
2019-01-06T09:14:50.348Z,92.80
2019-01-06T09:17:34.453Z,94.80
2019-01-06T09:22:23.402Z,95.90
2019-01-06T09:41:12.452Z,93.50
2019-01-06T09:43:54.348Z,92.90
2019-01-06T09:52:38.347Z,93.70
2019-01-06T10:06:33.520Z,92.90
2019-01-06T10:14:15.089Z,92.20
2019-01-06T10:16:55.351Z,92.40
2019-01-06T10:19:38.123Z,90.50
2019-01-06T10:22:22.925Z,90.30
2019-01-06T10:27:10.055Z,90.90
2019-01-06T10:32:52.187Z,91.20
2019-01-06T10:35:30.645Z,90.00
2019-01-06T10:38:22.108Z,90.40
2019-01-06T10:41:09.881Z,90.90
2019-01-06T10:43:51.253Z,88.10
2019-01-06T10:47:02.912Z,90.40
2019-01-06T10:49:43.498Z,88.30
2019-01-06T10:52:21.791Z,90.00
2019-01-06T10:55:00.247Z,91.60
2019-01-06T10:57:43.173Z,91.00
2019-01-06T11:00:29.487Z,91.30
2019-01-06T11:05:15.356Z,91.00
2019-01-06T11:08:00.263Z,92.00
2019-01-06T11:10:43.610Z,91.10
2019-01-06T11:13:35.313Z,91.30
2019-01-06T11:16:20.331Z,91.50
2019-01-06T11:21:08.750Z,91.80
2019-01-06T11:23:51.641Z,90.40
2019-01-06T11:26:48.054Z,91.70
2019-01-06T11:32:41.177Z,93.30
2019-01-06T11:35:27.858Z,94.10
2019-01-06T11:38:15.547Z,94.80
2019-01-06T11:41:30.100Z,93.80
2019-01-06T11:44:18.283Z,93.70
2019-01-06T11:47:00.708Z,93.00
2019-01-06T11:51:53.774Z,94.00
2019-01-06T12:01:49.700Z,93.10
2019-01-06T12:05:32.974Z,94.00
2019-01-06T12:08:25.203Z,94.10
2019-01-06T12:11:09.229Z,93.40
2019-01-06T12:14:02.367Z,93.00
2019-01-06T12:16:59.887Z,92.70
2019-01-06T12:20:01.869Z,93.10
2019-01-06T12:27:52.292Z,91.70
2019-01-06T12:32:40.900Z,91.20
2019-01-06T12:35:59.773Z,91.30
2019-01-06T12:42:08.511Z,92.80
2019-01-06T12:44:51.804Z,92.20
2019-01-06T12:49:35.681Z,92.30
2019-01-06T13:05:10.290Z,91.30
2019-01-06T13:07:51.151Z,90.00
2019-01-06T13:10:36.233Z,92.30
2019-01-06T13:13:52.536Z,92.30
2019-01-06T13:16:39.134Z,91.70
2019-01-06T13:21:26.570Z,92.00
2019-01-06T13:25:17.142Z,90.80
2019-01-06T13:30:01.909Z,91.00
2019-01-06T13:32:42.267Z,90.00
2019-01-06T13:36:24.046Z,86.80
2019-01-06T13:41:05.982Z,85.30
2019-01-06T13:43:46.818Z,87.70
2019-01-06T13:46:29.706Z,88.60
2019-01-06T13:49:08.680Z,88.50
2019-01-06T13:52:03.295Z,90.80
2019-01-06T13:55:16.059Z,91.00
2019-01-06T13:57:57.242Z,91.80
2019-01-06T14:00:37.793Z,91.50
2019-01-06T14:04:16.937Z,90.20
2019-01-06T14:07:01.005Z,87.20
2019-01-06T14:09:58.035Z,87.10
2019-01-06T14:13:35.954Z,85.40
2019-01-06T14:16:16.752Z,86.60
2019-01-06T14:18:55.138Z,83.90
2019-01-06T14:22:07.450Z,82.80
2019-01-06T14:24:50.952Z,87.30
2019-01-06T14:27:32.425Z,90.00
2019-01-06T14:32:19.026Z,89.00
2019-01-06T14:37:04.629Z,89.10
2019-01-06T14:39:46.695Z,87.50
2019-01-06T14:42:31.270Z,90.00
2019-01-06T14:45:13.815Z,91.10
2019-01-06T14:47:57.661Z,91.90
2019-01-06T14:50:40.388Z,89.00
2019-01-06T14:53:22.940Z,89.20
2019-01-06T14:58:08.309Z,88.60
2019-01-06T15:00:49.421Z,90.00
2019-01-06T15:03:33.018Z,88.90
2019-01-06T15:06:19.687Z,90.20
2019-01-06T15:08:57.974Z,89.60
2019-01-06T15:11:44.243Z,90.00
2019-01-06T15:14:24.102Z,90.10
2019-01-06T15:17:11.830Z,88.90
2019-01-06T15:20:07.513Z,89.40
2019-01-06T15:22:48.231Z,89.00
2019-01-06T15:26:31.377Z,87.60
2019-01-06T15:29:23.117Z,90.10
2019-01-06T15:32:24.084Z,87.60
2019-01-06T15:35:04.362Z,86.50
2019-01-06T15:37:45.494Z,88.10
2019-01-06T15:40:25.998Z,88.80
2019-01-06T15:43:06.520Z,88.80
2019-01-06T15:46:51.954Z,88.00
2019-01-06T15:49:36.487Z,89.80
2019-01-06T15:52:37.212Z,91.90
2019-01-06T15:57:21.383Z,92.00
2019-01-06T16:01:09.532Z,91.00
2019-01-06T16:04:53.383Z,91.90
2019-01-06T16:07:40.636Z,92.00
2019-01-06T16:11:23.652Z,91.80
2019-01-06T16:16:12.704Z,93.00
2019-01-06T16:18:59.858Z,93.30
2019-01-06T16:23:46.160Z,94.40
2019-01-06T16:26:42.746Z,95.20
2019-01-06T16:31:27.734Z,95.00
2019-01-06T16:34:08.722Z,96.00
2019-01-06T16:39:01.855Z,95.30
2019-01-06T16:42:06.134Z,95.60
2019-01-06T16:44:48.687Z,94.10
2019-01-06T16:50:45.451Z,94.30
2019-01-06T16:53:26.685Z,94.20
2019-01-06T16:56:18.641Z,92.20
2019-01-06T16:59:01.193Z,92.90
2019-01-06T17:01:42.567Z,91.20
2019-01-06T17:04:25.994Z,88.90
2019-01-06T17:09:10.986Z,90.90
2019-01-06T17:12:01.519Z,91.80
2019-01-06T17:16:49.100Z,91.00
2019-01-06T17:19:29.711Z,92.00
2019-01-06T17:23:11.915Z,91.50
2019-01-06T17:25:52.687Z,91.20
2019-01-06T17:30:39.992Z,92.40
2019-01-06T17:33:37.117Z,92.20
2019-01-06T17:36:50.700Z,92.50
2019-01-06T17:39:32.791Z,91.70
2019-01-06T17:42:13.238Z,93.30
2019-01-06T17:45:08.693Z,93.30
2019-01-06T17:47:49.067Z,93.90
2019-01-06T17:52:31.039Z,93.20
2019-01-06T18:01:16.855Z,94.60
2019-01-06T18:08:13.381Z,95.10
2019-01-06T18:10:54.392Z,96.30
2019-01-06T18:15:46.277Z,94.20
2019-01-06T18:18:37.448Z,94.50
2019-01-06T18:21:25.464Z,95.00
2019-01-06T18:25:09.996Z,95.10
2019-01-06T18:27:54.881Z,94.60
2019-01-06T18:30:33.380Z,94.70
2019-01-06T18:33:14.171Z,94.30
2019-01-06T18:36:04.369Z,94.10
2019-01-06T18:38:48.698Z,94.50
2019-01-06T18:41:29.091Z,94.60
2019-01-06T18:44:09.590Z,94.80
2019-01-06T18:47:24.582Z,94.20
2019-01-06T18:52:06.913Z,92.30
2019-01-06T18:54:59.462Z,92.90
2019-01-06T18:57:47.629Z,92.40
2019-01-06T19:00:35.362Z,93.70
2019-01-06T19:03:49.260Z,92.60
2019-01-06T19:06:36.576Z,93.40
2019-01-06T19:09:18.200Z,92.70
2019-01-06T19:12:18.804Z,92.50
2019-01-06T19:17:12.093Z,92.80
2019-01-06T19:19:58.696Z,93.20
2019-01-06T19:24:46.023Z,89.80
2019-01-06T19:27:36.118Z,90.40
2019-01-06T19:30:16.941Z,88.60
2019-01-06T19:33:03.081Z,90.20
2019-01-06T19:35:54.271Z,91.20
2019-01-06T19:38:37.458Z,91.90
2019-01-06T19:41:20.931Z,91.10
2019-01-06T19:47:17.357Z,90.00
2019-01-06T19:55:04.165Z,91.50
2019-01-06T20:01:15.900Z,90.90
2019-01-06T20:03:58.380Z,90.90
2019-01-06T20:12:58.893Z,91.80
2019-01-06T20:32:09.007Z,89.60
2019-01-06T20:37:00.680Z,90.60
2019-01-06T20:39:52.127Z,91.90
2019-01-06T20:44:44.850Z,90.00
2019-01-06T20:48:33.875Z,91.00
2019-01-06T20:51:21.255Z,90.80
2019-01-06T21:00:51.125Z,91.80
2019-01-06T21:03:40.800Z,92.10
2019-01-06T21:06:30.723Z,92.20
2019-01-06T21:09:22.537Z,92.10
2019-01-06T21:12:11.551Z,91.70
2019-01-06T21:18:20.363Z,93.70
2019-01-06T21:21:09.374Z,94.70
2019-01-06T21:25:57.825Z,94.80
2019-01-06T21:28:46.754Z,95.00
2019-01-06T21:31:31.581Z,94.40
2019-01-06T21:34:34.801Z,95.00
2019-01-06T21:37:22.273Z,95.20
2019-01-06T21:40:12.227Z,93.50
2019-01-06T21:42:56.629Z,92.30
2019-01-06T21:47:51.497Z,92.50
2019-01-06T21:50:45.458Z,94.00
2019-01-06T21:53:42.092Z,91.00
2019-01-06T21:56:34.770Z,92.20
2019-01-06T22:01:16.766Z,92.20
2019-01-06T22:04:10.969Z,93.20
2019-01-06T22:11:12.025Z,92.40
2019-01-06T22:13:55.864Z,93.80
2019-01-06T22:16:43.203Z,92.00
2019-01-06T22:19:33.458Z,92.30
2019-01-06T22:22:18.772Z,92.70
2019-01-06T22:25:03.119Z,92.50
2019-01-06T22:27:48.622Z,91.40
2019-01-06T22:30:40.956Z,90.80
2019-01-06T22:33:32.667Z,91.50
2019-01-06T22:38:18.503Z,90.30
2019-01-06T22:41:29.347Z,89.20
2019-01-06T22:44:10.916Z,90.30
2019-01-06T22:46:52.254Z,91.40
2019-01-06T22:49:34.743Z,91.60
2019-01-06T22:53:16.273Z,92.20
2019-01-06T22:57:58.393Z,92.40
2019-01-06T23:01:15.173Z,90.50
2019-01-06T23:03:57.512Z,91.20
2019-01-06T23:06:37.623Z,91.40
2019-01-06T23:09:17.987Z,92.60
2019-01-06T23:12:03.610Z,91.10
2019-01-06T23:14:49.690Z,91.90
2019-01-06T23:18:34.962Z,92.20
2019-01-06T23:21:41.018Z,93.10
2019-01-06T23:24:21.243Z,93.10
2019-01-06T23:28:08.372Z,93.50
2019-01-06T23:30:46.830Z,94.10
2019-01-06T23:33:32.613Z,94.90
2019-01-06T23:36:13.150Z,93.80
2019-01-06T23:38:57.421Z,92.70
2019-01-06T23:41:37.697Z,92.70
2019-01-06T23:46:23.548Z,92.10
2019-01-06T23:51:07.928Z,93.00
2019-01-06T23:53:48.262Z,93.80
2019-01-06T23:56:27.343Z,94.10
